Time;durP1;ratioP1;P1;durP2;ratioP2;P2;SDS_P1;SDS_P2;PMS_P1;PMS_P2;Temp;Humidity;BMP_temperature;BMP_pressure;BME280_temperature;BME280_humidity;BME280_pressure;Samples;Min_cycle;Max_cycle;Signal;HPM_P1;HPM_P2
2022/04/09 00:01:53;;;;;;;5.07;4.50;;;5.60;99.90;;;;;;5117597;28;20461;-73
2022/04/09 00:04:22;;;;;;;8.07;5.87;;;5.60;99.90;;;;;;5117669;28;20517;-73
2022/04/09 00:06:49;;;;;;;6.37;4.60;;;5.60;99.90;;;;;;5117637;28;20452;-73
2022/04/09 00:09:15;;;;;;;6.07;4.43;;;5.50;99.90;;;;;;5117904;28;20490;-71
2022/04/09 00:11:43;;;;;;;4.10;3.70;;;5.50;99.90;;;;;;5117189;28;20462;-71
2022/04/09 00:14:10;;;;;;;4.50;4.10;;;5.50;99.90;;;;;;5117284;28;20467;-71
2022/04/09 00:16:39;;;;;;;5.27;4.27;;;5.50;99.90;;;;;;5117048;28;20477;-72
2022/04/09 00:19:06;;;;;;;8.63;3.47;;;5.40;99.90;;;;;;5116667;28;20487;-72
2022/04/09 00:21:34;;;;;;;7.33;3.83;;;5.30;99.90;;;;;;5117269;28;20463;-72
2022/04/09 00:24:01;;;;;;;8.77;4.00;;;5.30;99.90;;;;;;5117264;28;20448;-73
2022/04/09 00:26:28;;;;;;;4.27;3.67;;;5.30;99.90;;;;;;5117065;28;20876;-73
2022/04/09 00:28:56;;;;;;;6.63;4.50;;;5.30;99.90;;;;;;5117059;28;20465;-73
2022/04/09 00:31:22;;;;;;;4.63;3.73;;;5.20;99.90;;;;;;5117264;28;20452;-73
2022/04/09 00:33:49;;;;;;;5.27;4.53;;;5.10;99.90;;;;;;5118598;28;20460;-73
2022/04/09 00:36:16;;;;;;;5.57;4.30;;;5.10;99.90;;;;;;5116784;28;21035;-73
2022/04/09 00:38:42;;;;;;;4.60;3.87;;;5.10;99.90;;;;;;5116806;28;20466;-72
2022/04/09 00:41:10;;;;;;;5.37;4.13;;;5.10;99.90;;;;;;5116622;28;20924;-72
2022/04/09 00:43:40;;;;;;;7.10;4.30;;;5.10;99.90;;;;;;5116812;28;20460;-72
2022/04/09 00:46:09;;;;;;;4.87;4.10;;;5.10;99.90;;;;;;5117217;28;20459;-72
2022/04/09 00:48:37;;;;;;;5.60;4.27;;;5.10;99.90;;;;;;5116665;28;20552;-72
2022/04/09 00:51:04;;;;;;;5.23;3.90;;;5.10;99.90;;;;;;5116612;28;20464;-72
2022/04/09 00:53:34;;;;;;;5.97;4.20;;;5.10;99.90;;;;;;5116490;28;20840;-72
2022/04/09 00:56:15;;;;;;;7.77;4.70;;;5.10;99.90;;;;;;5115990;28;20484;-72
2022/04/09 00:58:46;;;;;;;7.30;3.93;;;5.10;99.90;;;;;;5116494;28;20459;-72
2022/04/09 01:01:15;;;;;;;6.53;3.93;;;5.00;99.90;;;;;;5116480;28;20454;-72
2022/04/09 01:03:43;;;;;;;6.10;4.00;;;5.10;99.90;;;;;;5116218;28;20467;-73
2022/04/09 01:06:10;;;;;;;3.93;3.47;;;5.10;99.90;;;;;;5115912;28;20459;-72
2022/04/09 01:08:36;;;;;;;4.30;3.60;;;5.00;99.90;;;;;;5116543;28;20623;-72
2022/04/09 01:11:03;;;;;;;5.20;4.30;;;5.00;99.90;;;;;;5116723;28;20560;-72
2022/04/09 01:13:30;;;;;;;7.30;3.80;;;5.00;99.90;;;;;;5116577;28;20498;-72
2022/04/09 01:15:57;;;;;;;7.87;4.50;;;5.00;99.90;;;;;;5116441;28;20452;-72
2022/04/09 01:18:25;;;;;;;7.93;3.50;;;5.00;99.90;;;;;;5116733;28;20460;-72
2022/04/09 01:20:52;;;;;;;4.70;3.40;;;5.00;99.90;;;;;;5116680;28;20467;-72
2022/04/09 01:23:20;;;;;;;4.13;3.73;;;4.90;99.90;;;;;;5115995;28;20460;-73
2022/04/09 01:25:47;;;;;;;5.33;3.40;;;4.90;99.90;;;;;;5116263;28;20449;-72
2022/04/09 01:28:14;;;;;;;6.00;3.90;;;4.90;99.90;;;;;;5115929;28;20464;-72
2022/04/09 01:30:41;;;;;;;4.13;3.40;;;4.90;99.90;;;;;;5116038;28;20483;-73
2022/04/09 01:33:14;;;;;;;6.60;3.97;;;4.90;99.90;;;;;;5115673;28;20597;-73
2022/04/09 01:35:41;;;;;;;7.87;3.30;;;4.80;99.90;;;;;;5115733;28;20449;-72
2022/04/09 01:38:07;;;;;;;3.17;2.87;;;4.80;99.90;;;;;;5115799;28;20830;-72
2022/04/09 01:40:35;;;;;;;3.10;2.83;;;4.80;99.90;;;;;;5115576;28;20459;-72
2022/04/09 01:43:02;;;;;;;7.80;3.67;;;4.80;99.90;;;;;;5115731;28;20456;-73
2022/04/09 01:45:29;;;;;;;5.10;2.77;;;4.80;99.90;;;;;;5115766;28;20452;-72
2022/04/09 01:47:56;;;;;;;5.60;3.40;;;4.80;99.90;;;;;;5115787;28;20452;-72
2022/04/09 01:50:22;;;;;;;5.70;4.70;;;4.80;99.90;;;;;;5115133;28;20462;-73
2022/04/09 01:52:49;;;;;;;7.53;4.40;;;4.80;99.90;;;;;;5115845;28;20821;-72
2022/04/09 01:55:16;;;;;;;7.00;3.63;;;4.80;99.90;;;;;;5115120;28;20843;-72
2022/04/09 01:57:45;;;;;;;4.70;3.00;;;4.80;99.90;;;;;;5115388;28;20472;-72
2022/04/09 02:00:14;;;;;;;4.57;2.30;;;4.80;99.90;;;;;;5115057;28;20467;-73
2022/04/09 02:02:43;;;;;;;7.40;3.50;;;4.80;99.90;;;;;;5115317;28;20460;-72
2022/04/09 02:05:11;;;;;;;4.00;2.70;;;4.80;99.90;;;;;;5115348;28;20468;-72
2022/04/09 02:07:38;;;;;;;7.23;4.00;;;4.80;99.90;;;;;;5114963;28;20478;-72
2022/04/09 02:10:05;;;;;;;8.90;2.83;;;4.80;99.90;;;;;;5115456;28;20456;-72
2022/04/09 02:12:32;;;;;;;4.60;3.17;;;4.70;99.90;;;;;;5115230;28;20642;-72
2022/04/09 02:15:01;;;;;;;6.70;3.40;;;4.70;99.90;;;;;;5114919;28;20939;-72
2022/04/09 02:17:29;;;;;;;7.30;3.30;;;4.60;99.90;;;;;;5115222;28;20482;-72
2022/04/09 02:19:55;;;;;;;6.13;3.30;;;4.60;99.90;;;;;;5115123;28;20483;-72
2022/04/09 02:22:23;;;;;;;4.20;2.97;;;4.60;99.90;;;;;;5115711;28;20456;-72
2022/04/09 02:24:50;;;;;;;7.77;3.20;;;4.60;99.90;;;;;;5116158;28;20529;-72
2022/04/09 02:27:17;;;;;;;3.40;3.03;;;4.60;99.90;;;;;;5115192;28;20469;-72
2022/04/09 02:29:45;;;;;;;6.20;2.70;;;4.70;99.90;;;;;;5115141;28;20786;-73
2022/04/09 02:32:13;;;;;;;5.80;3.53;;;4.70;99.90;;;;;;5115955;28;20463;-72
2022/04/09 02:34:39;;;;;;;4.83;2.63;;;4.60;99.90;;;;;;5114928;28;20452;-72
2022/04/09 02:37:06;;;;;;;5.53;3.43;;;4.60;99.90;;;;;;5114277;28;20476;-72
2022/04/09 02:39:33;;;;;;;7.33;3.20;;;4.60;99.90;;;;;;5114856;28;20464;-72
2022/04/09 02:41:59;;;;;;;4.67;3.20;;;4.50;99.90;;;;;;5118447;28;20459;-72
2022/04/09 02:44:26;;;;;;;3.73;2.77;;;4.50;99.90;;;;;;5119183;28;20463;-72
2022/04/09 02:46:53;;;;;;;5.87;3.67;;;4.50;99.90;;;;;;5119202;28;20463;-72
2022/04/09 02:49:21;;;;;;;9.50;3.07;;;4.50;99.90;;;;;;5119019;28;20456;-71
2022/04/09 02:51:48;;;;;;;8.17;3.80;;;4.40;99.90;;;;;;5118635;28;20460;-71
2022/04/09 02:54:16;;;;;;;11.90;4.10;;;4.40;99.90;;;;;;5119161;28;20484;-72
2022/04/09 02:56:43;;;;;;;11.70;3.30;;;4.40;99.90;;;;;;5118878;28;20789;-71
2022/04/09 02:59:12;;;;;;;4.33;3.40;;;4.40;99.90;;;;;;5118784;28;20496;-71
2022/04/09 03:01:39;;;;;;;5.23;3.30;;;4.30;99.90;;;;;;5118654;28;20781;-71
2022/04/09 03:04:06;;;;;;;4.33;2.87;;;4.30;99.90;;;;;;5118607;28;20467;-72
2022/04/09 03:06:34;;;;;;;6.00;2.90;;;4.30;99.90;;;;;;5118587;28;20452;-72
2022/04/09 03:09:01;;;;;;;9.57;3.30;;;4.20;99.90;;;;;;5119304;28;20760;-72
2022/04/09 03:11:28;;;;;;;4.10;3.13;;;4.20;99.90;;;;;;5118373;28;20464;-72
2022/04/09 03:13:54;;;;;;;9.57;3.53;;;4.20;99.90;;;;;;5118898;28;20452;-72
2022/04/09 03:16:21;;;;;;;4.73;3.40;;;4.20;99.90;;;;;;5118333;28;20460;-72
2022/04/09 03:18:48;;;;;;;6.13;3.60;;;4.20;99.90;;;;;;5118335;28;20456;-72
2022/04/09 03:21:14;;;;;;;4.67;3.40;;;4.10;99.90;;;;;;5118177;28;20496;-72
2022/04/09 03:23:42;;;;;;;4.73;3.37;;;4.10;99.90;;;;;;5118488;28;20448;-72
2022/04/09 03:26:11;;;;;;;7.93;3.60;;;4.10;99.90;;;;;;5118418;28;20911;-72
2022/04/09 03:28:38;;;;;;;5.10;3.47;;;4.00;99.90;;;;;;5118164;28;20463;-72
2022/04/09 03:31:05;;;;;;;5.33;3.10;;;4.00;99.90;;;;;;5118354;28;20448;-73
2022/04/09 03:33:32;;;;;;;5.63;3.37;;;4.00;99.90;;;;;;5117996;28;20464;-72
2022/04/09 03:35:59;;;;;;;9.33;4.17;;;3.90;99.90;;;;;;5117996;28;20517;-72
2022/04/09 03:38:26;;;;;;;9.43;4.00;;;3.90;99.90;;;;;;5117898;28;20843;-72
2022/04/09 03:40:54;;;;;;;4.77;3.43;;;3.90;99.90;;;;;;5117973;28;20460;-72
2022/04/09 03:43:20;;;;;;;7.43;3.83;;;3.90;99.90;;;;;;5118181;28;20460;-72
2022/04/09 03:45:47;;;;;;;6.27;3.60;;;3.80;99.90;;;;;;5119281;28;20448;-73
2022/04/09 03:48:14;;;;;;;8.27;3.37;;;3.80;99.90;;;;;;5117670;28;20942;-72
2022/04/09 03:50:40;;;;;;;9.97;4.17;;;3.80;99.90;;;;;;5117779;28;20475;-72
2022/04/09 03:53:07;;;;;;;6.93;3.70;;;3.80;99.90;;;;;;5115937;28;20909;-72
2022/04/09 03:55:34;;;;;;;4.60;3.53;;;3.70;99.90;;;;;;5117629;28;20488;-72
2022/04/09 03:58:03;;;;;;;5.27;3.43;;;3.70;99.90;;;;;;5117349;28;20480;-72
2022/04/09 04:00:30;;;;;;;5.40;3.77;;;3.70;99.90;;;;;;5117656;28;20928;-72
2022/04/09 04:02:57;;;;;;;5.10;3.83;;;3.70;99.90;;;;;;5117838;28;20469;-72
2022/04/09 04:05:24;;;;;;;6.87;3.70;;;3.70;99.90;;;;;;5117400;28;20463;-72
2022/04/09 04:07:51;;;;;;;5.40;3.70;;;3.70;99.90;;;;;;5117274;28;20448;-72
2022/04/09 04:10:18;;;;;;;5.90;4.00;;;3.70;99.90;;;;;;5117905;28;20456;-72
2022/04/09 04:12:44;;;;;;;4.73;3.23;;;3.70;99.90;;;;;;5118123;28;20461;-72
2022/04/09 04:15:14;;;;;;;8.37;4.17;;;3.70;99.90;;;;;;5117649;28;20460;-72
2022/04/09 04:17:42;;;;;;;10.03;3.97;;;3.70;99.90;;;;;;5117861;28;20579;-73
2022/04/09 04:20:11;;;;;;;8.47;4.23;;;3.70;99.90;;;;;;5117303;28;20479;-72
2022/04/09 04:22:38;;;;;;;7.73;3.77;;;3.60;99.90;;;;;;5117767;28;20842;-72
2022/04/09 04:25:05;;;;;;;7.80;4.07;;;3.60;99.90;;;;;;5117442;28;20466;-72
2022/04/09 04:27:32;;;;;;;6.33;3.73;;;3.60;99.90;;;;;;5117710;28;20459;-72
2022/04/09 04:30:00;;;;;;;7.83;3.77;;;3.60;99.90;;;;;;5117192;28;20468;-72
2022/04/09 04:32:28;;;;;;;9.10;3.90;;;3.70;99.90;;;;;;5116824;28;20452;-72
2022/04/09 04:34:55;;;;;;;9.13;3.70;;;3.70;99.90;;;;;;5117132;28;20463;-72
2022/04/09 04:37:22;;;;;;;3.73;3.30;;;3.80;99.90;;;;;;5116909;28;20480;-72
2022/04/09 04:39:49;;;;;;;12.27;4.33;;;3.70;99.90;;;;;;5116950;28;20449;-72
2022/04/09 04:42:15;;;;;;;4.43;3.67;;;3.70;99.90;;;;;;5116772;28;20456;-72
2022/04/09 04:44:42;;;;;;;10.73;3.80;;;3.70;99.90;;;;;;5116645;28;20460;-72
2022/04/09 04:47:09;;;;;;;7.47;3.70;;;3.70;99.90;;;;;;5116765;28;20503;-72
2022/04/09 04:49:36;;;;;;;6.57;3.90;;;3.70;99.90;;;;;;5116684;28;20917;-72
2022/04/09 04:52:06;;;;;;;5.63;4.10;;;3.70;99.90;;;;;;5116636;28;20795;-72
2022/04/09 04:54:33;;;;;;;8.20;3.90;;;3.70;99.90;;;;;;5116304;28;20972;-72
2022/04/09 04:56:59;;;;;;;7.90;3.53;;;3.60;99.90;;;;;;5116155;28;20457;-72
2022/04/09 04:59:26;;;;;;;9.93;4.07;;;3.60;99.90;;;;;;5116090;28;20456;-72
2022/04/09 05:01:53;;;;;;;8.77;3.77;;;3.60;99.90;;;;;;5116592;28;20521;-72
2022/04/09 05:04:19;;;;;;;6.07;3.90;;;3.60;99.90;;;;;;5116105;28;20459;-72
2022/04/09 05:06:49;;;;;;;11.43;4.40;;;3.60;99.90;;;;;;5116368;28;20460;-72
2022/04/09 05:09:15;;;;;;;10.30;4.30;;;3.60;99.90;;;;;;5116237;28;20463;-72
2022/04/09 05:11:44;;;;;;;5.63;3.73;;;3.60;99.90;;;;;;5116266;28;20460;-72
2022/04/09 05:14:10;;;;;;;7.67;3.90;;;3.60;99.90;;;;;;5116403;28;20833;-72
2022/04/09 05:16:37;;;;;;;9.20;4.13;;;3.60;99.90;;;;;;5116153;28;20464;-72
2022/04/09 05:19:04;;;;;;;10.80;5.23;;;3.60;99.90;;;;;;5116188;28;20594;-72
2022/04/09 05:21:31;;;;;;;6.07;3.57;;;3.60;99.90;;;;;;5115865;28;20925;-72
2022/04/09 05:23:59;;;;;;;9.97;4.33;;;3.60;99.90;;;;;;5115695;28;20935;-72
2022/04/09 05:26:25;;;;;;;21.23;4.53;;;3.60;99.90;;;;;;5116045;28;20463;-72
2022/04/09 05:28:54;;;;;;;6.87;5.00;;;3.60;99.90;;;;;;5115574;28;20905;-72
2022/04/09 05:31:25;;;;;;;10.73;4.50;;;3.60;99.90;;;;;;5115568;28;20517;-72
2022/04/09 05:33:53;;;;;;;7.47;4.00;;;3.60;99.90;;;;;;5116450;28;20441;-72
2022/04/09 05:36:20;;;;;;;10.83;4.40;;;3.60;99.90;;;;;;5115823;28;20460;-72
2022/04/09 05:38:46;;;;;;;9.97;4.23;;;3.60;99.90;;;;;;5115746;28;20916;-72
2022/04/09 05:41:14;;;;;;;12.90;4.10;;;3.50;99.90;;;;;;5115908;28;20479;-73
2022/04/09 05:43:41;;;;;;;9.50;4.30;;;3.60;99.90;;;;;;5115504;28;20881;-72
2022/04/09 05:46:08;;;;;;;10.60;3.87;;;3.60;99.90;;;;;;5115659;28;20463;-72
2022/04/09 05:48:34;;;;;;;11.60;4.27;;;3.60;99.90;;;;;;5115581;28;20787;-72
2022/04/09 05:51:01;;;;;;;10.00;3.77;;;3.60;99.90;;;;;;5114968;28;20452;-72
2022/04/09 05:53:28;;;;;;;9.20;4.10;;;3.60;99.90;;;;;;5115479;28;20520;-73
2022/04/09 05:55:55;;;;;;;7.37;3.10;;;3.70;99.90;;;;;;5115261;28;20555;-72
2022/04/09 05:58:23;;;;;;;12.33;4.17;;;3.70;99.90;;;;;;5115215;28;20484;-71
2022/04/09 06:00:50;;;;;;;8.97;4.30;;;3.80;99.90;;;;;;5115184;28;20457;-71
2022/04/09 06:03:17;;;;;;;5.67;3.80;;;3.80;99.90;;;;;;5116968;28;20458;-71
2022/04/09 06:05:44;;;;;;;9.30;4.40;;;3.90;99.90;;;;;;5117026;28;20452;-72
2022/04/09 06:08:11;;;;;;;12.20;3.87;;;4.00;99.90;;;;;;5115603;28;20452;-72
2022/04/09 06:10:37;;;;;;;9.60;4.30;;;4.00;99.90;;;;;;5115506;28;20467;-72
2022/04/09 06:13:04;;;;;;;9.67;3.60;;;4.00;99.90;;;;;;5115307;28;20563;-72
2022/04/09 06:15:32;;;;;;;6.17;3.63;;;4.10;99.90;;;;;;5115433;28;20468;-72
2022/04/09 06:18:05;;;;;;;7.57;4.10;;;4.10;99.90;;;;;;5115135;28;20484;-72
2022/04/09 06:20:32;;;;;;;8.17;3.90;;;4.20;99.90;;;;;;5115575;28;20788;-73
2022/04/09 06:22:59;;;;;;;9.27;4.00;;;4.20;99.90;;;;;;5115303;28;20460;-72
2022/04/09 06:25:26;;;;;;;6.90;3.50;;;4.20;99.90;;;;;;5114942;28;20785;-72
2022/04/09 06:27:53;;;;;;;4.17;2.90;;;4.30;99.90;;;;;;5115155;28;20762;-72
2022/04/09 06:30:19;;;;;;;9.13;3.83;;;4.30;99.90;;;;;;5115057;28;20784;-73
2022/04/09 06:32:48;;;;;;;11.03;3.80;;;4.30;99.90;;;;;;5115332;28;20466;-72
2022/04/09 06:35:15;;;;;;;11.13;3.97;;;4.30;99.90;;;;;;5114970;28;20453;-73
2022/04/09 06:37:42;;;;;;;4.73;3.03;;;4.30;99.90;;;;;;5115005;28;20492;-72
2022/04/09 06:40:09;;;;;;;4.30;3.60;;;4.40;99.90;;;;;;5115191;28;20539;-72
2022/04/09 06:42:36;;;;;;;9.13;5.03;;;4.40;99.90;;;;;;5115224;28;20482;-72
2022/04/09 06:45:03;;;;;;;7.53;4.30;;;4.30;99.90;;;;;;5115057;28;20453;-72
2022/04/09 06:47:30;;;;;;;9.77;3.83;;;4.40;99.90;;;;;;5115209;28;20451;-72
2022/04/09 06:49:58;;;;;;;7.30;3.50;;;4.40;99.90;;;;;;5114711;28;20472;-72
2022/04/09 06:52:25;;;;;;;7.90;3.60;;;4.50;99.90;;;;;;5115179;28;20549;-72
2022/04/09 06:54:55;;;;;;;5.40;3.17;;;4.60;99.90;;;;;;5115255;28;20495;-73
2022/04/09 06:57:22;;;;;;;8.23;3.67;;;4.60;99.90;;;;;;5115457;28;20460;-72
2022/04/09 06:59:49;;;;;;;4.77;3.50;;;4.70;99.90;;;;;;5114671;28;20476;-71
2022/04/09 07:02:16;;;;;;;8.13;3.67;;;4.80;99.90;;;;;;5114993;28;20476;-71
2022/04/09 07:04:44;;;;;;;6.27;3.23;;;4.80;99.90;;;;;;5114887;28;20548;-72
2022/04/09 07:07:12;;;;;;;7.90;4.10;;;4.90;99.90;;;;;;5114600;28;20452;-72
2022/04/09 07:09:38;;;;;;;8.10;3.33;;;5.00;99.90;;;;;;5114913;28;20448;-72
2022/04/09 07:12:07;;;;;;;8.83;3.60;;;5.00;99.90;;;;;;5115158;28;20463;-72
2022/04/09 07:14:33;;;;;;;8.93;3.50;;;5.20;99.90;;;;;;5115173;28;20761;-71
2022/04/09 07:17:03;;;;;;;7.17;3.20;;;5.20;99.90;;;;;;5115163;28;20470;-72
2022/04/09 07:19:30;;;;;;;6.60;4.00;;;5.30;99.90;;;;;;5114749;28;20482;-72
2022/04/09 07:21:56;;;;;;;7.37;3.57;;;5.40;99.90;;;;;;5115835;28;20460;-71
2022/04/09 07:24:25;;;;;;;7.00;3.73;;;5.40;99.90;;;;;;5115624;28;20598;-71
2022/04/09 07:26:52;;;;;;;12.70;3.73;;;5.50;99.90;;;;;;5117145;28;20456;-72
2022/04/09 07:29:18;;;;;;;7.80;3.00;;;5.50;99.90;;;;;;5119247;28;20448;-72
2022/04/09 07:31:47;;;;;;;6.17;3.10;;;5.60;99.90;;;;;;5118842;28;20940;-72
2022/04/09 07:34:13;;;;;;;8.43;3.27;;;5.60;99.90;;;;;;5119086;28;20456;-72
2022/04/09 07:36:40;;;;;;;16.00;3.80;;;5.60;99.90;;;;;;5118465;28;20529;-72
2022/04/09 07:39:07;;;;;;;5.20;3.20;;;5.70;99.90;;;;;;5118073;28;20491;-72
2022/04/09 07:41:35;;;;;;;7.73;3.13;;;5.70;99.90;;;;;;5118004;28;20452;-71
2022/04/09 07:44:02;;;;;;;11.40;4.70;;;5.80;99.90;;;;;;5118000;28;20782;-72
2022/04/09 07:46:28;;;;;;;6.30;3.50;;;5.80;99.90;;;;;;5118215;28;20460;-72
2022/04/09 07:48:55;;;;;;;5.20;4.00;;;5.90;99.90;;;;;;5118367;28;20452;-71
2022/04/09 07:51:22;;;;;;;9.80;3.53;;;5.90;99.90;;;;;;5118648;28;20460;-71
2022/04/09 07:53:48;;;;;;;5.80;3.27;;;6.00;99.90;;;;;;5119404;28;20452;-71
2022/04/09 07:56:16;;;;;;;12.57;3.60;;;6.00;99.90;;;;;;5118871;28;20448;-72
2022/04/09 07:58:47;;;;;;;7.43;4.00;;;6.00;99.90;;;;;;5117576;28;20810;-71
2022/04/09 08:01:14;;;;;;;8.60;3.40;;;6.10;99.90;;;;;;5117596;28;20441;-72
2022/04/09 08:03:41;;;;;;;8.63;3.70;;;6.10;99.90;;;;;;5117609;28;20460;-71
2022/04/09 08:06:07;;;;;;;6.20;3.03;;;6.20;99.90;;;;;;5117339;28;20464;-72
2022/04/09 08:08:35;;;;;;;10.17;3.90;;;6.30;99.90;;;;;;5117362;28;20787;-72
2022/04/09 08:11:01;;;;;;;11.90;3.50;;;6.40;99.90;;;;;;5117350;28;20660;-72
2022/04/09 08:13:28;;;;;;;7.90;4.83;;;6.50;99.90;;;;;;5117135;28;20525;-72
2022/04/09 08:15:56;;;;;;;7.23;3.17;;;6.50;99.90;;;;;;5117204;28;20555;-72
2022/04/09 08:18:23;;;;;;;3.13;2.50;;;6.50;99.90;;;;;;5116997;28;20499;-71
2022/04/09 08:20:50;;;;;;;4.70;2.87;;;6.50;99.90;;;;;;5116860;28;20942;-72
2022/04/09 08:23:16;;;;;;;7.47;3.00;;;6.50;99.90;;;;;;5117112;28;20457;-72
2022/04/09 08:25:43;;;;;;;5.77;3.33;;;6.60;99.90;;;;;;5117363;28;20489;-72
2022/04/09 08:28:10;;;;;;;9.83;3.67;;;6.60;99.90;;;;;;5117094;28;20463;-72
2022/04/09 08:30:41;;;;;;;5.17;2.83;;;6.70;99.90;;;;;;5117128;28;20786;-72
2022/04/09 08:33:10;;;;;;;5.07;3.30;;;6.80;99.90;;;;;;5116489;28;20437;-71
2022/04/09 08:35:37;;;;;;;7.90;3.20;;;6.90;99.90;;;;;;5117069;28;20582;-71
2022/04/09 08:38:04;;;;;;;4.93;3.23;;;6.80;99.90;;;;;;5116145;28;20460;-71
2022/04/09 08:40:33;;;;;;;8.87;3.17;;;6.80;99.90;;;;;;5116474;28;20495;-71
2022/04/09 08:43:00;;;;;;;6.20;2.70;;;6.80;99.90;;;;;;5116598;28;20496;-72
2022/04/09 08:45:29;;;;;;;6.57;3.10;;;6.90;99.90;;;;;;5116687;28;20452;-70
2022/04/09 08:47:56;;;;;;;8.30;2.80;;;7.10;99.90;;;;;;5116792;28;20525;-72
2022/04/09 08:50:24;;;;;;;7.67;2.67;;;7.20;99.90;;;;;;5116681;28;20824;-71
2022/04/09 08:52:52;;;;;;;3.60;2.57;;;7.20;99.90;;;;;;5116349;28;20460;-72
2022/04/09 08:55:19;;;;;;;8.80;3.07;;;7.30;99.90;;;;;;5116072;28;20488;-71
2022/04/09 08:57:46;;;;;;;4.80;3.00;;;7.30;99.90;;;;;;5116230;28;20471;-71
2022/04/09 09:00:17;;;;;;;11.83;2.87;;;7.40;99.90;;;;;;5116507;28;20476;-71
2022/04/09 09:02:51;;;;;;;5.63;2.70;;;7.50;99.90;;;;;;5116438;28;20444;-71
2022/04/09 09:05:31;;;;;;;8.03;3.10;;;7.50;99.90;;;;;;5115979;28;20969;-71
2022/04/09 09:07:58;;;;;;;5.60;3.30;;;7.50;99.90;;;;;;5116157;28;20499;-72
2022/04/09 09:10:25;;;;;;;9.20;3.03;;;7.50;99.90;;;;;;5116268;28;20448;-71
2022/04/09 09:13:01;;;;;;;7.20;3.13;;;7.50;99.90;;;;;;5115927;28;20958;-71
2022/04/09 09:15:29;;;;;;;5.43;2.53;;;7.60;99.90;;;;;;5115738;28;20520;-71
2022/04/09 09:17:57;;;;;;;6.97;2.87;;;7.60;99.90;;;;;;5115565;28;20457;-71
2022/04/09 09:20:24;;;;;;;6.30;2.57;;;7.60;99.90;;;;;;5115693;28;20527;-71
2022/04/09 09:22:53;;;;;;;6.93;3.13;;;7.60;99.90;;;;;;5115728;28;20456;-71
2022/04/09 09:25:20;;;;;;;3.67;2.00;;;7.70;99.90;;;;;;5115879;28;20790;-71
2022/04/09 09:27:57;;;;;;;6.90;2.80;;;7.70;99.90;;;;;;5116950;28;20460;-71
2022/04/09 09:30:24;;;;;;;4.30;2.60;;;7.70;99.90;;;;;;5117684;28;20441;-71
2022/04/09 09:33:06;;;;;;;5.97;2.20;;;7.80;99.90;;;;;;5116561;28;20467;-71
2022/04/09 09:35:51;;;;;;;3.07;2.50;;;7.80;99.90;;;;;;5115927;28;20445;-71
2022/04/09 09:38:20;;;;;;;4.20;2.33;;;7.90;99.90;;;;;;5115762;28;20513;-72
2022/04/09 09:40:47;;;;;;;6.40;2.57;;;8.10;99.90;;;;;;5116014;28;20441;-71
2022/04/09 09:43:15;;;;;;;9.00;2.40;;;8.40;99.90;;;;;;5115625;28;20525;-71
2022/04/09 09:45:41;;;;;;;5.93;2.40;;;8.40;99.90;;;;;;5115433;28;20480;-72
2022/04/09 09:48:19;;;;;;;5.63;2.63;;;8.30;99.90;;;;;;5115435;28;20453;-70
2022/04/09 09:50:46;;;;;;;5.83;2.40;;;8.30;99.90;;;;;;5114311;28;20440;-71
2022/04/09 09:53:14;;;;;;;4.80;2.03;;;8.20;99.90;;;;;;5115059;28;20462;-72
2022/04/09 09:55:45;;;;;;;5.60;2.30;;;8.30;99.90;;;;;;5114813;28;20547;-72
2022/04/09 09:58:16;;;;;;;3.70;2.40;;;8.30;99.90;;;;;;5115314;28;20472;-70
2022/04/09 10:00:43;;;;;;;6.17;2.13;;;8.40;99.90;;;;;;5114920;28;20468;-70
2022/04/09 10:03:13;;;;;;;7.43;2.00;;;8.50;99.90;;;;;;5115355;28;20460;-72
2022/04/09 10:05:40;;;;;;;3.87;2.27;;;8.50;99.90;;;;;;5115296;28;20525;-72
2022/04/09 10:08:08;;;;;;;5.40;2.23;;;8.60;99.90;;;;;;5115268;28;20448;-72
2022/04/09 10:10:36;;;;;;;4.97;2.03;;;8.70;99.90;;;;;;5115154;28;20444;-72
2022/04/09 10:13:04;;;;;;;7.27;2.20;;;8.70;99.90;;;;;;5116332;28;20483;-72
2022/04/09 10:15:32;;;;;;;2.33;2.13;;;8.80;99.90;;;;;;5115419;28;20452;-72
2022/04/09 10:18:00;;;;;;;2.13;1.93;;;8.80;99.90;;;;;;5115586;28;20452;-72
2022/04/09 10:20:29;;;;;;;4.47;2.30;;;8.80;99.90;;;;;;5114728;28;21013;-72
2022/04/09 10:22:58;;;;;;;5.47;2.40;;;8.90;99.90;;;;;;5114549;28;20551;-72
2022/04/09 10:25:27;;;;;;;6.73;3.20;;;8.80;99.90;;;;;;5114924;28;20467;-72
2022/04/09 10:28:00;;;;;;;8.37;1.73;;;8.80;99.90;;;;;;5114849;28;20767;-72
2022/04/09 10:30:30;;;;;;;5.70;2.50;;;8.80;99.90;;;;;;5115245;28;20719;-72
2022/04/09 10:32:58;;;;;;;5.37;2.00;;;8.80;99.90;;;;;;5114632;28;20456;-72
2022/04/09 10:35:27;;;;;;;4.23;2.33;;;8.70;99.90;;;;;;5114714;28;20536;-72
2022/04/09 10:38:17;;;;;;;5.90;2.30;;;8.60;99.90;;;;;;5114431;28;20456;-72
2022/04/09 10:41:27;;;;;;;4.97;1.87;;;8.70;99.90;;;;;;5115412;28;20570;-72
2022/04/09 10:43:57;;;;;;;3.77;1.83;;;8.60;99.90;;;;;;5115470;28;20483;-71
2022/04/09 10:46:34;;;;;;;8.43;2.37;;;8.60;99.90;;;;;;5114592;28;20468;-71
2022/04/09 10:49:17;;;;;;;3.87;1.60;;;8.50;99.90;;;;;;5114724;28;20544;-70
2022/04/09 10:52:02;;;;;;;3.70;2.00;;;8.60;99.90;;;;;;5114666;28;20786;-71
2022/04/09 10:54:29;;;;;;;4.70;1.87;;;8.70;99.90;;;;;;5114782;28;20824;-71
2022/04/09 10:56:57;;;;;;;8.00;2.07;;;8.80;99.90;;;;;;5114174;28;20452;-71
2022/04/09 10:59:34;;;;;;;2.87;1.97;;;8.90;99.90;;;;;;5114448;28;20805;-71
2022/04/09 11:02:04;;;;;;;4.50;2.10;;;9.00;99.90;;;;;;5115772;28;20512;-72
2022/04/09 11:04:43;;;;;;;6.20;1.77;;;9.00;99.90;;;;;;5118568;28;20581;-72
2022/04/09 11:07:17;;;;;;;3.27;1.73;;;9.00;99.90;;;;;;5118605;28;20440;-71
2022/04/09 11:09:57;;;;;;;1.93;1.60;;;8.90;99.90;;;;;;5119101;28;20436;-72
2022/04/09 11:12:26;;;;;;;2.40;1.40;;;8.90;99.90;;;;;;5117933;28;20448;-71
2022/04/09 11:14:55;;;;;;;5.67;1.60;;;8.90;99.90;;;;;;5118162;28;20460;-71
2022/04/09 11:17:34;;;;;;;3.33;1.83;;;9.00;99.90;;;;;;5118401;28;20831;-71
2022/04/09 11:20:09;;;;;;;3.90;1.70;;;9.10;99.90;;;;;;5118975;28;20755;-71
2022/04/09 11:22:37;;;;;;;3.80;2.10;;;9.20;99.90;;;;;;5118270;28;20463;-71
2022/04/09 11:25:05;;;;;;;6.57;1.80;;;9.50;99.90;;;;;;5118466;28;20784;-71
2022/04/09 11:27:33;;;;;;;6.80;2.40;;;9.60;99.90;;;;;;5117429;28;20463;-72
2022/04/09 11:30:00;;;;;;;4.50;2.03;;;9.80;99.90;;;;;;5118222;28;20458;-71
2022/04/09 11:32:29;;;;;;;2.90;1.40;;;9.90;99.90;;;;;;5117921;28;20460;-71
2022/04/09 11:34:58;;;;;;;4.97;1.93;;;9.70;99.90;;;;;;5117988;28;20551;-71
2022/04/09 11:37:29;;;;;;;2.73;1.30;;;9.60;99.90;;;;;;5117831;28;20456;-72
2022/04/09 11:39:57;;;;;;;3.57;1.33;;;9.60;99.90;;;;;;5117690;28;20465;-72
2022/04/09 11:42:24;;;;;;;3.43;1.60;;;9.40;99.90;;;;;;5117672;28;20457;-72
2022/04/09 11:44:51;;;;;;;2.97;1.23;;;9.50;99.90;;;;;;5117823;28;20467;-72
2022/04/09 11:47:19;;;;;;;2.93;1.40;;;9.80;99.90;;;;;;5117888;28;20833;-72
2022/04/09 11:49:48;;;;;;;3.27;1.57;;;10.00;99.90;;;;;;5117543;28;20459;-72
2022/04/09 11:52:26;;;;;;;7.37;1.53;;;10.20;99.90;;;;;;5117724;28;20457;-72
2022/04/09 11:54:54;;;;;;;6.20;1.73;;;10.20;99.90;;;;;;5117135;28;20526;-72
2022/04/09 11:57:20;;;;;;;5.90;1.93;;;10.10;99.90;;;;;;5117547;28;20452;-71
2022/04/09 11:59:52;;;;;;;1.93;1.13;;;10.40;99.90;;;;;;5117428;28;20495;-72
2022/04/09 12:02:24;;;;;;;3.90;1.60;;;10.80;99.90;;;;;;5117648;28;20433;-72
2022/04/09 12:04:54;;;;;;;2.93;1.60;;;11.10;99.90;;;;;;5117237;28;20547;-72
2022/04/09 12:07:22;;;;;;;2.83;1.27;;;11.00;99.90;;;;;;5117295;28;20473;-72
2022/04/09 12:09:49;;;;;;;3.57;1.50;;;11.10;99.90;;;;;;5117339;28;20463;-72
2022/04/09 12:12:19;;;;;;;4.07;1.20;;;11.60;99.90;;;;;;5117299;28;20457;-73
2022/04/09 12:14:54;;;;;;;5.03;1.13;;;12.20;99.90;;;;;;5115906;28;20555;-72
2022/04/09 12:17:22;;;;;;;2.50;1.13;;;12.60;99.90;;;;;;5117033;28;20820;-71
2022/04/09 12:19:51;;;;;;;1.40;1.03;;;12.90;99.90;;;;;;5116929;28;21051;-72
2022/04/09 12:22:20;;;;;;;1.90;0.90;;;12.90;99.90;;;;;;5116763;28;20457;-72
2022/04/09 12:24:52;;;;;;;6.43;1.30;;;12.90;99.20;;;;;;5116646;28;20525;-72
2022/04/09 12:27:22;;;;;;;2.40;1.10;;;12.90;98.90;;;;;;5116778;28;20484;-71
2022/04/09 12:29:52;;;;;;;2.13;1.20;;;12.80;98.90;;;;;;5116972;28;20766;-72
2022/04/09 12:32:23;;;;;;;2.93;1.17;;;12.70;99.10;;;;;;5116424;28;20603;-71
2022/04/09 12:34:57;;;;;;;1.93;1.20;;;11.90;99.90;;;;;;5116602;28;20436;-71
2022/04/09 12:37:25;;;;;;;1.87;1.10;;;11.40;99.90;;;;;;5116582;28;20451;-72
2022/04/09 12:39:52;;;;;;;5.17;1.70;;;11.20;99.90;;;;;;5116176;28;20563;-71
2022/04/09 12:42:30;;;;;;;10.17;1.70;;;10.70;99.90;;;;;;5116687;28;20453;-71
2022/04/09 12:45:13;;;;;;;4.63;1.67;;;10.30;99.90;;;;;;5117116;28;20441;-72
2022/04/09 12:47:40;;;;;;;3.03;1.20;;;10.40;99.90;;;;;;5116327;28;20450;-72
2022/04/09 12:50:24;;;;;;;2.10;1.00;;;10.60;99.90;;;;;;5119031;28;20939;-71
2022/04/09 12:52:51;;;;;;;5.13;1.37;;;10.50;99.90;;;;;;5119035;28;20479;-72
2022/04/09 12:55:20;;;;;;;2.00;0.90;;;10.10;99.90;;;;;;5118116;28;20480;-72
2022/04/09 12:57:47;;;;;;;1.80;1.07;;;9.90;99.90;;;;;;5116668;28;20543;-72
2022/04/09 13:00:16;;;;;;;4.57;1.50;;;9.60;99.90;;;;;;5116149;28;20472;-72
2022/04/09 13:02:44;;;;;;;2.13;1.30;;;9.40;99.90;;;;;;5116337;28;20469;-71